sensor_id;sensor_type;location;lat;lon;timestamp;temperature;humidity
4526;DHT22;2275;52.208;8.804;2022-10-16T00:01:53;14.60;99.90
4526;DHT22;2275;52.208;8.804;2022-10-16T00:04:20;14.50;99.90
4526;DHT22;2275;52.208;8.804;2022-10-16T00:06:47;14.60;99.90
4526;DHT22;2275;52.208;8.804;2022-10-16T00:09:15;14.60;99.90
4526;DHT22;2275;52.208;8.804;2022-10-16T00:11:41;14.60;99.90
4526;DHT22;2275;52.208;8.804;2022-10-16T00:14:10;14.70;99.90
4526;DHT22;2275;52.208;8.804;2022-10-16T00:16:36;14.70;99.90
4526;DHT22;2275;52.208;8.804;2022-10-16T00:19:03;14.60;99.90
4526;DHT22;2275;52.208;8.804;2022-10-16T00:21:31;14.60;99.90
4526;DHT22;2275;52.208;8.804;2022-10-16T00:24:00;14.60;99.90
4526;DHT22;2275;52.208;8.804;2022-10-16T00:26:27;14.60;99.90
4526;DHT22;2275;52.208;8.804;2022-10-16T00:28:54;14.70;99.90
4526;DHT22;2275;52.208;8.804;2022-10-16T00:31:21;14.70;99.90
4526;DHT22;2275;52.208;8.804;2022-10-16T00:33:48;14.70;99.90
4526;DHT22;2275;52.208;8.804;2022-10-16T00:36:17;14.70;99.90
4526;DHT22;2275;52.208;8.804;2022-10-16T00:38:43;14.70;99.90
4526;DHT22;2275;52.208;8.804;2022-10-16T00:41:11;14.80;99.90
4526;DHT22;2275;52.208;8.804;2022-10-16T00:43:43;14.70;99.90
4526;DHT22;2275;52.208;8.804;2022-10-16T00:46:15;14.70;99.90
4526;DHT22;2275;52.208;8.804;2022-10-16T00:48:41;14.70;99.90
4526;DHT22;2275;52.208;8.804;2022-10-16T00:51:08;14.70;99.90
4526;DHT22;2275;52.208;8.804;2022-10-16T00:53:36;14.80;99.90
4526;DHT22;2275;52.208;8.804;2022-10-16T00:56:04;14.80;99.90
4526;DHT22;2275;52.208;8.804;2022-10-16T00:58:31;14.70;99.90
4526;DHT22;2275;52.208;8.804;2022-10-16T01:00:59;14.70;99.90
4526;DHT22;2275;52.208;8.804;2022-10-16T01:03:31;14.70;99.90
4526;DHT22;2275;52.208;8.804;2022-10-16T01:06:19;14.70;99.90
4526;DHT22;2275;52.208;8.804;2022-10-16T01:08:55;14.60;99.90
4526;DHT22;2275;52.208;8.804;2022-10-16T01:11:41;14.70;99.90
4526;DHT22;2275;52.208;8.804;2022-10-16T01:14:11;14.70;99.90
4526;DHT22;2275;52.208;8.804;2022-10-16T01:16:49;14.70;99.90
4526;DHT22;2275;52.208;8.804;2022-10-16T01:19:23;14.60;99.90
4526;DHT22;2275;52.208;8.804;2022-10-16T01:21:48;14.60;99.90
4526;DHT22;2275;52.208;8.804;2022-10-16T01:24:27;14.60;99.90
4526;DHT22;2275;52.208;8.804;2022-10-16T01:27:04;14.50;99.90
4526;DHT22;2275;52.208;8.804;2022-10-16T01:29:33;14.50;99.90
4526;DHT22;2275;52.208;8.804;2022-10-16T01:31:59;14.60;99.90
4526;DHT22;2275;52.208;8.804;2022-10-16T01:34:32;14.60;99.90
4526;DHT22;2275;52.208;8.804;2022-10-16T01:36:58;14.60;99.90
4526;DHT22;2275;52.208;8.804;2022-10-16T01:39:24;14.50;99.90
4526;DHT22;2275;52.208;8.804;2022-10-16T01:41:54;14.50;99.90
4526;DHT22;2275;52.208;8.804;2022-10-16T01:44:22;14.40;99.90
4526;DHT22;2275;52.208;8.804;2022-10-16T01:46:48;14.30;99.90
4526;DHT22;2275;52.208;8.804;2022-10-16T01:49:15;14.30;99.90
4526;DHT22;2275;52.208;8.804;2022-10-16T01:51:43;14.30;99.90
4526;DHT22;2275;52.208;8.804;2022-10-16T01:54:09;14.30;99.90
4526;DHT22;2275;52.208;8.804;2022-10-16T01:56:37;14.30;99.90
4526;DHT22;2275;52.208;8.804;2022-10-16T01:59:09;14.20;99.90
4526;DHT22;2275;52.208;8.804;2022-10-16T02:01:34;14.30;99.90
4526;DHT22;2275;52.208;8.804;2022-10-16T02:04:13;14.30;99.90
4526;DHT22;2275;52.208;8.804;2022-10-16T02:06:30;14.30;99.90
4526;DHT22;2275;52.208;8.804;2022-10-16T02:08:58;14.40;99.90
4526;DHT22;2275;52.208;8.804;2022-10-16T02:11:27;14.40;99.90
4526;DHT22;2275;52.208;8.804;2022-10-16T02:13:59;14.40;99.90
4526;DHT22;2275;52.208;8.804;2022-10-16T02:16:41;14.30;99.90
4526;DHT22;2275;52.208;8.804;2022-10-16T02:19:07;14.30;99.90
4526;DHT22;2275;52.208;8.804;2022-10-16T02:21:39;14.30;99.90
4526;DHT22;2275;52.208;8.804;2022-10-16T02:24:09;14.20;99.90
4526;DHT22;2275;52.208;8.804;2022-10-16T02:26:38;14.20;99.90
4526;DHT22;2275;52.208;8.804;2022-10-16T02:29:04;14.10;99.90
4526;DHT22;2275;52.208;8.804;2022-10-16T02:31:31;14.10;99.90
4526;DHT22;2275;52.208;8.804;2022-10-16T02:33:57;14.10;99.90
4526;DHT22;2275;52.208;8.804;2022-10-16T02:36:25;14.00;99.90
4526;DHT22;2275;52.208;8.804;2022-10-16T02:38:52;14.00;99.90
4526;DHT22;2275;52.208;8.804;2022-10-16T02:41:20;13.90;99.90
4526;DHT22;2275;52.208;8.804;2022-10-16T02:43:46;13.90;99.90
4526;DHT22;2275;52.208;8.804;2022-10-16T02:46:13;13.90;99.90
4526;DHT22;2275;52.208;8.804;2022-10-16T02:48:40;13.90;99.90
4526;DHT22;2275;52.208;8.804;2022-10-16T02:51:07;13.90;99.90
4526;DHT22;2275;52.208;8.804;2022-10-16T02:53:35;13.90;99.90
4526;DHT22;2275;52.208;8.804;2022-10-16T02:56:02;13.90;99.90
4526;DHT22;2275;52.208;8.804;2022-10-16T02:58:29;13.80;99.90
4526;DHT22;2275;52.208;8.804;2022-10-16T03:00:56;13.90;99.90
4526;DHT22;2275;52.208;8.804;2022-10-16T03:03:23;13.80;99.90
4526;DHT22;2275;52.208;8.804;2022-10-16T03:05:50;13.70;99.90
4526;DHT22;2275;52.208;8.804;2022-10-16T03:08:17;13.70;99.90
4526;DHT22;2275;52.208;8.804;2022-10-16T03:10:45;13.70;99.90
4526;DHT22;2275;52.208;8.804;2022-10-16T03:13:13;13.70;99.90
4526;DHT22;2275;52.208;8.804;2022-10-16T03:15:39;13.70;99.90
4526;DHT22;2275;52.208;8.804;2022-10-16T03:18:06;13.70;99.90
4526;DHT22;2275;52.208;8.804;2022-10-16T03:20:34;13.60;99.90
4526;DHT22;2275;52.208;8.804;2022-10-16T03:23:01;13.60;99.90
4526;DHT22;2275;52.208;8.804;2022-10-16T03:25:29;13.60;99.90
4526;DHT22;2275;52.208;8.804;2022-10-16T03:27:57;13.50;99.90
4526;DHT22;2275;52.208;8.804;2022-10-16T03:30:24;13.50;99.90
4526;DHT22;2275;52.208;8.804;2022-10-16T03:32:51;13.60;99.90
4526;DHT22;2275;52.208;8.804;2022-10-16T03:35:21;13.70;99.90
4526;DHT22;2275;52.208;8.804;2022-10-16T03:37:49;13.70;99.90
4526;DHT22;2275;52.208;8.804;2022-10-16T03:40:16;13.70;99.90
4526;DHT22;2275;52.208;8.804;2022-10-16T03:42:43;13.70;99.90
4526;DHT22;2275;52.208;8.804;2022-10-16T03:45:11;13.70;99.90
4526;DHT22;2275;52.208;8.804;2022-10-16T03:47:37;13.70;99.90
4526;DHT22;2275;52.208;8.804;2022-10-16T03:50:05;13.70;99.90
4526;DHT22;2275;52.208;8.804;2022-10-16T03:52:33;13.80;99.90
4526;DHT22;2275;52.208;8.804;2022-10-16T03:55:00;13.80;99.90
4526;DHT22;2275;52.208;8.804;2022-10-16T03:57:28;13.70;99.90
4526;DHT22;2275;52.208;8.804;2022-10-16T03:59:56;13.80;99.90
4526;DHT22;2275;52.208;8.804;2022-10-16T04:02:23;13.80;99.90
4526;DHT22;2275;52.208;8.804;2022-10-16T04:04:50;13.80;99.90
4526;DHT22;2275;52.208;8.804;2022-10-16T04:07:17;13.80;99.90
4526;DHT22;2275;52.208;8.804;2022-10-16T04:09:44;13.70;99.90
4526;DHT22;2275;52.208;8.804;2022-10-16T04:12:11;13.70;99.90
4526;DHT22;2275;52.208;8.804;2022-10-16T04:14:38;13.70;99.90
4526;DHT22;2275;52.208;8.804;2022-10-16T04:17:06;13.80;99.90
4526;DHT22;2275;52.208;8.804;2022-10-16T04:19:33;13.80;99.90
4526;DHT22;2275;52.208;8.804;2022-10-16T04:22:00;13.80;99.90
4526;DHT22;2275;52.208;8.804;2022-10-16T04:24:27;13.80;99.90
4526;DHT22;2275;52.208;8.804;2022-10-16T04:26:55;13.90;99.90
4526;DHT22;2275;52.208;8.804;2022-10-16T04:29:23;13.90;99.90
4526;DHT22;2275;52.208;8.804;2022-10-16T04:31:50;13.80;99.90
4526;DHT22;2275;52.208;8.804;2022-10-16T04:34:17;13.90;99.90
4526;DHT22;2275;52.208;8.804;2022-10-16T04:36:44;13.90;99.90
4526;DHT22;2275;52.208;8.804;2022-10-16T04:39:11;13.90;99.90
4526;DHT22;2275;52.208;8.804;2022-10-16T04:41:37;13.90;99.90
4526;DHT22;2275;52.208;8.804;2022-10-16T04:44:05;13.90;99.90
4526;DHT22;2275;52.208;8.804;2022-10-16T04:46:32;13.90;99.90
4526;DHT22;2275;52.208;8.804;2022-10-16T04:48:59;14.00;99.90
4526;DHT22;2275;52.208;8.804;2022-10-16T04:51:26;14.10;99.90
4526;DHT22;2275;52.208;8.804;2022-10-16T04:53:54;14.20;99.90
4526;DHT22;2275;52.208;8.804;2022-10-16T04:56:21;14.30;99.90
4526;DHT22;2275;52.208;8.804;2022-10-16T04:58:49;14.20;99.90
4526;DHT22;2275;52.208;8.804;2022-10-16T05:01:16;14.30;99.90
4526;DHT22;2275;52.208;8.804;2022-10-16T05:03:43;14.40;99.90
4526;DHT22;2275;52.208;8.804;2022-10-16T05:06:10;14.40;99.90
4526;DHT22;2275;52.208;8.804;2022-10-16T05:08:37;14.40;99.90
4526;DHT22;2275;52.208;8.804;2022-10-16T05:11:04;14.40;99.90
4526;DHT22;2275;52.208;8.804;2022-10-16T05:13:31;14.50;99.90
4526;DHT22;2275;52.208;8.804;2022-10-16T05:15:58;14.50;99.90
4526;DHT22;2275;52.208;8.804;2022-10-16T05:18:25;14.50;99.90
4526;DHT22;2275;52.208;8.804;2022-10-16T05:20:52;14.60;99.90
4526;DHT22;2275;52.208;8.804;2022-10-16T05:23:19;14.50;99.90
4526;DHT22;2275;52.208;8.804;2022-10-16T05:25:53;14.50;99.90
4526;DHT22;2275;52.208;8.804;2022-10-16T05:28:19;14.50;99.90
4526;DHT22;2275;52.208;8.804;2022-10-16T05:30:47;14.50;99.90
4526;DHT22;2275;52.208;8.804;2022-10-16T05:33:14;14.50;99.90
4526;DHT22;2275;52.208;8.804;2022-10-16T05:35:41;14.50;99.90
4526;DHT22;2275;52.208;8.804;2022-10-16T05:38:08;14.40;99.90
4526;DHT22;2275;52.208;8.804;2022-10-16T05:40:35;14.40;99.90
4526;DHT22;2275;52.208;8.804;2022-10-16T05:43:03;14.40;99.90
4526;DHT22;2275;52.208;8.804;2022-10-16T05:45:31;14.40;99.90
4526;DHT22;2275;52.208;8.804;2022-10-16T05:47:59;14.40;99.90
4526;DHT22;2275;52.208;8.804;2022-10-16T05:50:25;14.40;99.90
4526;DHT22;2275;52.208;8.804;2022-10-16T05:52:52;14.40;99.90
4526;DHT22;2275;52.208;8.804;2022-10-16T05:55:19;14.40;99.90
4526;DHT22;2275;52.208;8.804;2022-10-16T05:57:46;14.40;99.90
4526;DHT22;2275;52.208;8.804;2022-10-16T06:00:14;14.40;99.90
4526;DHT22;2275;52.208;8.804;2022-10-16T06:02:41;14.40;99.90
4526;DHT22;2275;52.208;8.804;2022-10-16T06:05:09;14.40;99.90
4526;DHT22;2275;52.208;8.804;2022-10-16T06:07:36;14.40;99.90
4526;DHT22;2275;52.208;8.804;2022-10-16T06:10:03;14.50;99.90
4526;DHT22;2275;52.208;8.804;2022-10-16T06:12:31;14.50;99.90
4526;DHT22;2275;52.208;8.804;2022-10-16T06:14:58;14.50;99.90
4526;DHT22;2275;52.208;8.804;2022-10-16T06:17:26;14.60;99.90
4526;DHT22;2275;52.208;8.804;2022-10-16T06:19:52;14.60;99.90
4526;DHT22;2275;52.208;8.804;2022-10-16T06:22:20;14.60;99.90
4526;DHT22;2275;52.208;8.804;2022-10-16T06:24:47;14.60;99.90
4526;DHT22;2275;52.208;8.804;2022-10-16T06:27:14;14.60;99.90
4526;DHT22;2275;52.208;8.804;2022-10-16T06:29:41;14.70;99.90
4526;DHT22;2275;52.208;8.804;2022-10-16T06:32:09;14.80;99.90
4526;DHT22;2275;52.208;8.804;2022-10-16T06:34:36;14.80;99.90
4526;DHT22;2275;52.208;8.804;2022-10-16T06:37:03;14.80;99.90
4526;DHT22;2275;52.208;8.804;2022-10-16T06:39:30;14.90;99.90
4526;DHT22;2275;52.208;8.804;2022-10-16T06:41:57;15.00;99.90
4526;DHT22;2275;52.208;8.804;2022-10-16T06:44:25;15.00;99.90
4526;DHT22;2275;52.208;8.804;2022-10-16T06:46:52;14.90;99.90
4526;DHT22;2275;52.208;8.804;2022-10-16T06:49:19;15.00;99.90
4526;DHT22;2275;52.208;8.804;2022-10-16T06:51:47;15.10;99.90
4526;DHT22;2275;52.208;8.804;2022-10-16T06:54:14;15.10;99.90
4526;DHT22;2275;52.208;8.804;2022-10-16T06:56:41;15.10;99.90
4526;DHT22;2275;52.208;8.804;2022-10-16T06:59:08;15.10;99.90
4526;DHT22;2275;52.208;8.804;2022-10-16T07:01:36;15.00;99.90
4526;DHT22;2275;52.208;8.804;2022-10-16T07:04:03;15.10;99.90
4526;DHT22;2275;52.208;8.804;2022-10-16T07:06:31;15.20;99.90
4526;DHT22;2275;52.208;8.804;2022-10-16T07:09:00;15.20;99.90
4526;DHT22;2275;52.208;8.804;2022-10-16T07:11:26;15.20;99.90
4526;DHT22;2275;52.208;8.804;2022-10-16T07:13:53;15.20;99.90
4526;DHT22;2275;52.208;8.804;2022-10-16T07:16:21;15.30;99.90
4526;DHT22;2275;52.208;8.804;2022-10-16T07:18:47;15.30;99.90
4526;DHT22;2275;52.208;8.804;2022-10-16T07:21:16;15.40;99.90
4526;DHT22;2275;52.208;8.804;2022-10-16T07:23:43;15.50;99.90
4526;DHT22;2275;52.208;8.804;2022-10-16T07:26:11;15.60;99.90
4526;DHT22;2275;52.208;8.804;2022-10-16T07:28:38;15.60;99.90
4526;DHT22;2275;52.208;8.804;2022-10-16T07:31:07;15.70;99.90
4526;DHT22;2275;52.208;8.804;2022-10-16T07:33:34;15.70;99.90
4526;DHT22;2275;52.208;8.804;2022-10-16T07:36:01;15.80;99.90
4526;DHT22;2275;52.208;8.804;2022-10-16T07:38:28;15.90;99.90
4526;DHT22;2275;52.208;8.804;2022-10-16T07:40:58;15.90;99.90
4526;DHT22;2275;52.208;8.804;2022-10-16T07:43:25;15.90;99.90
4526;DHT22;2275;52.208;8.804;2022-10-16T07:45:52;16.00;99.90
4526;DHT22;2275;52.208;8.804;2022-10-16T07:48:19;16.00;99.90
4526;DHT22;2275;52.208;8.804;2022-10-16T07:50:47;16.10;99.90
4526;DHT22;2275;52.208;8.804;2022-10-16T07:53:14;16.10;99.90
4526;DHT22;2275;52.208;8.804;2022-10-16T07:55:42;16.00;99.90
4526;DHT22;2275;52.208;8.804;2022-10-16T07:58:09;16.00;99.90
4526;DHT22;2275;52.208;8.804;2022-10-16T08:00:36;16.00;99.90
4526;DHT22;2275;52.208;8.804;2022-10-16T08:03:04;15.90;99.90
4526;DHT22;2275;52.208;8.804;2022-10-16T08:05:32;15.80;99.90
4526;DHT22;2275;52.208;8.804;2022-10-16T08:07:59;15.80;99.90
4526;DHT22;2275;52.208;8.804;2022-10-16T08:10:27;15.80;99.90
4526;DHT22;2275;52.208;8.804;2022-10-16T08:12:53;15.70;99.90
4526;DHT22;2275;52.208;8.804;2022-10-16T08:15:21;15.80;99.90
4526;DHT22;2275;52.208;8.804;2022-10-16T08:17:54;15.80;99.90
4526;DHT22;2275;52.208;8.804;2022-10-16T08:20:21;15.90;99.90
4526;DHT22;2275;52.208;8.804;2022-10-16T08:22:48;15.90;99.90
4526;DHT22;2275;52.208;8.804;2022-10-16T08:25:15;16.00;99.90
4526;DHT22;2275;52.208;8.804;2022-10-16T08:27:42;16.00;99.90
4526;DHT22;2275;52.208;8.804;2022-10-16T08:30:11;16.10;99.90
4526;DHT22;2275;52.208;8.804;2022-10-16T08:32:38;16.10;99.90
4526;DHT22;2275;52.208;8.804;2022-10-16T08:35:05;16.10;99.90
4526;DHT22;2275;52.208;8.804;2022-10-16T08:37:32;16.10;99.90
4526;DHT22;2275;52.208;8.804;2022-10-16T08:39:59;16.10;99.90
4526;DHT22;2275;52.208;8.804;2022-10-16T08:42:39;16.20;99.90
4526;DHT22;2275;52.208;8.804;2022-10-16T08:45:26;16.20;99.90
4526;DHT22;2275;52.208;8.804;2022-10-16T08:48:00;16.20;99.90
4526;DHT22;2275;52.208;8.804;2022-10-16T08:50:27;16.20;99.90
4526;DHT22;2275;52.208;8.804;2022-10-16T08:52:53;16.20;99.90
4526;DHT22;2275;52.208;8.804;2022-10-16T08:55:38;16.30;99.90
4526;DHT22;2275;52.208;8.804;2022-10-16T08:58:13;16.40;99.90
4526;DHT22;2275;52.208;8.804;2022-10-16T09:00:40;16.30;99.90
4526;DHT22;2275;52.208;8.804;2022-10-16T09:03:16;16.40;99.90
4526;DHT22;2275;52.208;8.804;2022-10-16T09:05:49;16.40;99.90
4526;DHT22;2275;52.208;8.804;2022-10-16T09:11:00;16.50;99.90
4526;DHT22;2275;52.208;8.804;2022-10-16T09:13:40;16.50;99.90
4526;DHT22;2275;52.208;8.804;2022-10-16T09:16:11;16.60;99.90
4526;DHT22;2275;52.208;8.804;2022-10-16T09:18:37;16.60;99.90
4526;DHT22;2275;52.208;8.804;2022-10-16T09:21:14;16.70;99.90
4526;DHT22;2275;52.208;8.804;2022-10-16T09:23:40;16.70;99.90
4526;DHT22;2275;52.208;8.804;2022-10-16T09:26:09;16.80;99.90
4526;DHT22;2275;52.208;8.804;2022-10-16T09:28:34;17.00;99.90
4526;DHT22;2275;52.208;8.804;2022-10-16T09:31:01;17.50;99.90
4526;DHT22;2275;52.208;8.804;2022-10-16T09:33:30;18.30;1.00
4526;DHT22;2275;52.208;8.804;2022-10-16T09:35:56;19.80;1.00
4526;DHT22;2275;52.208;8.804;2022-10-16T09:38:29;20.20;99.90
4526;DHT22;2275;52.208;8.804;2022-10-16T09:40:56;20.30;99.90
4526;DHT22;2275;52.208;8.804;2022-10-16T09:43:24;21.20;99.90
4526;DHT22;2275;52.208;8.804;2022-10-16T09:45:55;21.40;99.90
4526;DHT22;2275;52.208;8.804;2022-10-16T09:48:22;21.40;99.90
4526;DHT22;2275;52.208;8.804;2022-10-16T09:50:56;21.00;99.90
4526;DHT22;2275;52.208;8.804;2022-10-16T09:53:23;21.00;99.90
4526;DHT22;2275;52.208;8.804;2022-10-16T09:55:51;21.40;99.90
4526;DHT22;2275;52.208;8.804;2022-10-16T09:58:17;22.30;99.90
4526;DHT22;2275;52.208;8.804;2022-10-16T10:00:49;23.20;99.90
4526;DHT22;2275;52.208;8.804;2022-10-16T10:05:48;24.30;99.90
4526;DHT22;2275;52.208;8.804;2022-10-16T10:08:16;25.10;99.90
4526;DHT22;2275;52.208;8.804;2022-10-16T10:10:43;25.40;99.90
4526;DHT22;2275;52.208;8.804;2022-10-16T10:13:19;25.40;99.90
4526;DHT22;2275;52.208;8.804;2022-10-16T10:15:47;25.00;99.90
4526;DHT22;2275;52.208;8.804;2022-10-16T10:18:18;24.30;99.90
4526;DHT22;2275;52.208;8.804;2022-10-16T10:20:45;23.80;99.90
4526;DHT22;2275;52.208;8.804;2022-10-16T10:23:21;23.60;99.90
4526;DHT22;2275;52.208;8.804;2022-10-16T10:26:07;23.90;99.90
4526;DHT22;2275;52.208;8.804;2022-10-16T10:28:42;24.40;99.90
4526;DHT22;2275;52.208;8.804;2022-10-16T10:31:32;23.20;99.90
4526;DHT22;2275;52.208;8.804;2022-10-16T10:35:07;22.70;99.90
4526;DHT22;2275;52.208;8.804;2022-10-16T10:36:43;22.20;99.90
4526;DHT22;2275;52.208;8.804;2022-10-16T10:39:15;21.50;99.90
4526;DHT22;2275;52.208;8.804;2022-10-16T10:43:04;21.00;99.90
4526;DHT22;2275;52.208;8.804;2022-10-16T10:44:56;20.40;99.90
4526;DHT22;2275;52.208;8.804;2022-10-16T10:50:14;20.60;99.90
4526;DHT22;2275;52.208;8.804;2022-10-16T10:53:31;21.00;99.90
4526;DHT22;2275;52.208;8.804;2022-10-16T10:55:49;21.40;99.90
4526;DHT22;2275;52.208;8.804;2022-10-16T10:58:48;22.50;99.90
4526;DHT22;2275;52.208;8.804;2022-10-16T11:01:14;22.30;99.90
4526;DHT22;2275;52.208;8.804;2022-10-16T11:06:51;22.90;99.90
4526;DHT22;2275;52.208;8.804;2022-10-16T11:09:20;22.50;99.90
4526;DHT22;2275;52.208;8.804;2022-10-16T11:11:50;21.50;99.90
4526;DHT22;2275;52.208;8.804;2022-10-16T11:14:29;21.10;99.90
4526;DHT22;2275;52.208;8.804;2022-10-16T11:19:36;20.90;99.90
4526;DHT22;2275;52.208;8.804;2022-10-16T11:22:22;20.90;99.90
4526;DHT22;2275;52.208;8.804;2022-10-16T11:24:55;20.80;99.90
4526;DHT22;2275;52.208;8.804;2022-10-16T11:27:40;20.40;99.90
4526;DHT22;2275;52.208;8.804;2022-10-16T11:30:12;20.40;99.90
4526;DHT22;2275;52.208;8.804;2022-10-16T11:35:07;20.50;99.90
4526;DHT22;2275;52.208;8.804;2022-10-16T11:37:32;20.30;99.90
4526;DHT22;2275;52.208;8.804;2022-10-16T11:40:03;20.30;99.90
4526;DHT22;2275;52.208;8.804;2022-10-16T11:42:30;20.20;99.90
4526;DHT22;2275;52.208;8.804;2022-10-16T11:45:00;20.20;99.90
4526;DHT22;2275;52.208;8.804;2022-10-16T11:50:25;19.80;99.90
4526;DHT22;2275;52.208;8.804;2022-10-16T11:53:11;19.60;99.90
4526;DHT22;2275;52.208;8.804;2022-10-16T11:55:36;19.70;99.90
4526;DHT22;2275;52.208;8.804;2022-10-16T11:58:05;19.80;99.90
4526;DHT22;2275;52.208;8.804;2022-10-16T12:00:35;19.90;99.90
4526;DHT22;2275;52.208;8.804;2022-10-16T12:08:19;20.00;99.90
4526;DHT22;2275;52.208;8.804;2022-10-16T12:10:47;20.10;99.90
4526;DHT22;2275;52.208;8.804;2022-10-16T12:16:04;20.30;99.90
4526;DHT22;2275;52.208;8.804;2022-10-16T12:18:22;20.40;99.90
4526;DHT22;2275;52.208;8.804;2022-10-16T12:20:56;20.70;99.90
4526;DHT22;2275;52.208;8.804;2022-10-16T12:23:26;20.70;99.90
4526;DHT22;2275;52.208;8.804;2022-10-16T12:25:55;20.70;99.90
4526;DHT22;2275;52.208;8.804;2022-10-16T12:28:27;20.60;99.90
4526;DHT22;2275;52.208;8.804;2022-10-16T12:30:54;20.70;99.90
4526;DHT22;2275;52.208;8.804;2022-10-16T12:33:25;20.70;99.90
4526;DHT22;2275;52.208;8.804;2022-10-16T12:35:51;20.50;99.90
4526;DHT22;2275;52.208;8.804;2022-10-16T12:38:20;20.40;99.90
4526;DHT22;2275;52.208;8.804;2022-10-16T12:46:40;20.20;99.90
4526;DHT22;2275;52.208;8.804;2022-10-16T12:51:53;20.20;99.90
4526;DHT22;2275;52.208;8.804;2022-10-16T12:54:22;19.90;99.90
4526;DHT22;2275;52.208;8.804;2022-10-16T12:56:58;19.80;99.90
4526;DHT22;2275;52.208;8.804;2022-10-16T12:59:35;19.80;99.90
4526;DHT22;2275;52.208;8.804;2022-10-16T13:05:01;19.80;99.90
4526;DHT22;2275;52.208;8.804;2022-10-16T13:07:43;19.50;99.90
4526;DHT22;2275;52.208;8.804;2022-10-16T13:10:52;19.50;99.90
4526;DHT22;2275;52.208;8.804;2022-10-16T13:13:35;19.40;99.90
4526;DHT22;2275;52.208;8.804;2022-10-16T13:15:54;19.60;99.90
4526;DHT22;2275;52.208;8.804;2022-10-16T13:21:28;19.70;99.90
4526;DHT22;2275;52.208;8.804;2022-10-16T13:23:55;19.60;99.90
4526;DHT22;2275;52.208;8.804;2022-10-16T13:29:03;19.70;99.90
4526;DHT22;2275;52.208;8.804;2022-10-16T13:31:30;19.80;99.90
4526;DHT22;2275;52.208;8.804;2022-10-16T13:33:58;19.90;99.90
4526;DHT22;2275;52.208;8.804;2022-10-16T13:36:27;19.90;99.90
4526;DHT22;2275;52.208;8.804;2022-10-16T13:39:10;20.20;99.90
4526;DHT22;2275;52.208;8.804;2022-10-16T13:41:34;20.40;99.90
4526;DHT22;2275;52.208;8.804;2022-10-16T13:44:01;20.60;99.90
4526;DHT22;2275;52.208;8.804;2022-10-16T13:46:28;20.70;99.90
4526;DHT22;2275;52.208;8.804;2022-10-16T13:48:57;20.60;99.90
4526;DHT22;2275;52.208;8.804;2022-10-16T13:51:24;20.60;99.90
4526;DHT22;2275;52.208;8.804;2022-10-16T13:53:50;20.70;99.90
4526;DHT22;2275;52.208;8.804;2022-10-16T13:56:19;20.90;99.90
4526;DHT22;2275;52.208;8.804;2022-10-16T13:58:46;20.90;99.90
4526;DHT22;2275;52.208;8.804;2022-10-16T14:01:16;20.80;99.90
4526;DHT22;2275;52.208;8.804;2022-10-16T14:03:44;20.80;99.90
4526;DHT22;2275;52.208;8.804;2022-10-16T14:06:12;21.00;99.90
4526;DHT22;2275;52.208;8.804;2022-10-16T14:08:40;21.10;99.90
4526;DHT22;2275;52.208;8.804;2022-10-16T14:11:05;21.20;99.90
4526;DHT22;2275;52.208;8.804;2022-10-16T14:13:34;21.20;99.90
4526;DHT22;2275;52.208;8.804;2022-10-16T14:16:02;21.20;99.90
4526;DHT22;2275;52.208;8.804;2022-10-16T14:18:28;21.20;99.90
4526;DHT22;2275;52.208;8.804;2022-10-16T14:20:55;21.30;99.90
4526;DHT22;2275;52.208;8.804;2022-10-16T14:23:23;21.20;99.90
4526;DHT22;2275;52.208;8.804;2022-10-16T14:25:50;21.00;99.90
4526;DHT22;2275;52.208;8.804;2022-10-16T14:28:21;21.00;99.90
4526;DHT22;2275;52.208;8.804;2022-10-16T14:30:50;20.90;99.90
4526;DHT22;2275;52.208;8.804;2022-10-16T14:33:23;20.90;99.90
4526;DHT22;2275;52.208;8.804;2022-10-16T14:36:21;21.00;99.90
4526;DHT22;2275;52.208;8.804;2022-10-16T14:38:31;21.10;99.90
4526;DHT22;2275;52.208;8.804;2022-10-16T14:40:58;21.30;99.90
4526;DHT22;2275;52.208;8.804;2022-10-16T14:43:36;21.30;99.90
4526;DHT22;2275;52.208;8.804;2022-10-16T14:46:03;21.30;99.90
4526;DHT22;2275;52.208;8.804;2022-10-16T14:48:30;21.30;99.90
4526;DHT22;2275;52.208;8.804;2022-10-16T14:50:57;21.40;99.90
4526;DHT22;2275;52.208;8.804;2022-10-16T14:53:24;21.30;99.90
4526;DHT22;2275;52.208;8.804;2022-10-16T14:55:51;21.50;99.90
4526;DHT22;2275;52.208;8.804;2022-10-16T14:58:19;21.50;99.90
4526;DHT22;2275;52.208;8.804;2022-10-16T15:00:45;21.50;99.90
4526;DHT22;2275;52.208;8.804;2022-10-16T15:03:12;21.40;99.90
4526;DHT22;2275;52.208;8.804;2022-10-16T15:05:39;21.20;99.90
4526;DHT22;2275;52.208;8.804;2022-10-16T15:08:06;21.20;99.90
4526;DHT22;2275;52.208;8.804;2022-10-16T15:10:35;21.10;99.90
4526;DHT22;2275;52.208;8.804;2022-10-16T15:13:00;20.90;99.90
4526;DHT22;2275;52.208;8.804;2022-10-16T15:15:32;20.60;99.90
4526;DHT22;2275;52.208;8.804;2022-10-16T15:17:57;20.40;99.90
4526;DHT22;2275;52.208;8.804;2022-10-16T15:20:24;20.30;99.90
4526;DHT22;2275;52.208;8.804;2022-10-16T15:22:51;20.30;99.90
4526;DHT22;2275;52.208;8.804;2022-10-16T15:25:34;20.20;99.90
4526;DHT22;2275;52.208;8.804;2022-10-16T15:27:59;20.20;99.90
4526;DHT22;2275;52.208;8.804;2022-10-16T15:30:26;20.10;99.90
4526;DHT22;2275;52.208;8.804;2022-10-16T15:32:53;20.20;99.90
4526;DHT22;2275;52.208;8.804;2022-10-16T15:35:21;20.20;99.90
4526;DHT22;2275;52.208;8.804;2022-10-16T15:37:48;20.20;99.90
4526;DHT22;2275;52.208;8.804;2022-10-16T15:40:17;20.30;99.90
4526;DHT22;2275;52.208;8.804;2022-10-16T15:42:44;20.30;99.90
4526;DHT22;2275;52.208;8.804;2022-10-16T15:45:11;20.30;99.90
4526;DHT22;2275;52.208;8.804;2022-10-16T15:48:00;20.30;99.90
4526;DHT22;2275;52.208;8.804;2022-10-16T15:50:27;20.20;99.90
4526;DHT22;2275;52.208;8.804;2022-10-16T15:52:55;20.10;99.90
4526;DHT22;2275;52.208;8.804;2022-10-16T15:55:22;20.00;99.90
4526;DHT22;2275;52.208;8.804;2022-10-16T15:57:48;19.90;99.90
4526;DHT22;2275;52.208;8.804;2022-10-16T16:00:17;19.80;99.90
4526;DHT22;2275;52.208;8.804;2022-10-16T16:02:43;19.70;99.90
4526;DHT22;2275;52.208;8.804;2022-10-16T16:05:10;19.60;99.90
4526;DHT22;2275;52.208;8.804;2022-10-16T16:07:38;19.50;99.90
4526;DHT22;2275;52.208;8.804;2022-10-16T16:10:06;19.40;99.90
4526;DHT22;2275;52.208;8.804;2022-10-16T16:12:33;19.40;99.90
4526;DHT22;2275;52.208;8.804;2022-10-16T16:15:00;19.40;99.90
4526;DHT22;2275;52.208;8.804;2022-10-16T16:17:27;19.40;99.90
4526;DHT22;2275;52.208;8.804;2022-10-16T16:19:54;19.40;99.90
4526;DHT22;2275;52.208;8.804;2022-10-16T16:22:21;19.40;99.90
4526;DHT22;2275;52.208;8.804;2022-10-16T16:24:49;19.40;99.90
4526;DHT22;2275;52.208;8.804;2022-10-16T16:27:16;19.40;99.90
4526;DHT22;2275;52.208;8.804;2022-10-16T16:29:43;19.40;99.90
4526;DHT22;2275;52.208;8.804;2022-10-16T16:32:10;19.30;99.90
4526;DHT22;2275;52.208;8.804;2022-10-16T16:34:37;19.30;99.90
4526;DHT22;2275;52.208;8.804;2022-10-16T16:37:06;19.20;99.90
4526;DHT22;2275;52.208;8.804;2022-10-16T16:39:33;19.10;99.90
4526;DHT22;2275;52.208;8.804;2022-10-16T16:42:00;18.90;99.90
4526;DHT22;2275;52.208;8.804;2022-10-16T16:44:28;18.80;99.90
4526;DHT22;2275;52.208;8.804;2022-10-16T16:46:56;18.70;99.90
4526;DHT22;2275;52.208;8.804;2022-10-16T16:49:23;18.70;99.90
4526;DHT22;2275;52.208;8.804;2022-10-16T16:51:52;18.70;99.90
4526;DHT22;2275;52.208;8.804;2022-10-16T16:54:20;18.70;99.90
4526;DHT22;2275;52.208;8.804;2022-10-16T16:56:48;18.70;99.90
4526;DHT22;2275;52.208;8.804;2022-10-16T16:59:15;18.60;99.90